createdAt,value
2022-10-02T08:07:47.013Z,12.20
2022-10-02T08:10:16.622Z,12.20
2022-10-02T08:13:00.210Z,12.20
2022-10-02T08:15:33.494Z,12.20
2022-10-02T08:18:33.229Z,12.20
2022-10-02T08:20:59.164Z,12.20
2022-10-02T08:23:31.379Z,12.20
2022-10-02T08:26:02.047Z,12.20
2022-10-02T08:28:37.965Z,12.20
2022-10-02T08:31:12.296Z,12.30
2022-10-02T08:33:39.527Z,12.30
2022-10-02T08:36:36.128Z,12.30
2022-10-02T08:39:37.037Z,12.30
2022-10-02T08:42:37.171Z,12.20
2022-10-02T08:45:24.158Z,12.30
2022-10-02T08:48:24.152Z,12.40
2022-10-02T08:51:13.534Z,12.40
2022-10-02T08:54:04.614Z,12.40
2022-10-02T08:56:49.405Z,12.40
2022-10-02T08:59:22.510Z,12.50
2022-10-02T09:02:27.718Z,12.50
2022-10-02T09:05:31.214Z,12.60
2022-10-02T09:08:22.791Z,12.60
2022-10-02T09:11:20.914Z,12.50
2022-10-02T09:14:13.347Z,12.70
2022-10-02T09:17:09.217Z,12.70
2022-10-02T09:20:10.577Z,12.80
2022-10-02T09:23:11.337Z,12.80
2022-10-02T09:25:43.962Z,13.00
2022-10-02T09:28:38.428Z,13.00
2022-10-02T09:31:45.149Z,13.10
2022-10-02T09:34:58.644Z,13.20
2022-10-02T09:37:51.218Z,13.10
2022-10-02T09:40:26.842Z,13.00
2022-10-02T09:43:16.725Z,13.00
2022-10-02T09:46:23.755Z,13.10
2022-10-02T09:49:11.747Z,13.20
2022-10-02T09:52:15.049Z,13.10
2022-10-02T09:55:19.850Z,13.10
2022-10-02T09:58:25.383Z,13.20
2022-10-02T10:01:33.452Z,13.40
2022-10-02T10:04:18.648Z,13.40
2022-10-02T10:07:19.193Z,13.40
2022-10-02T10:09:51.807Z,13.60
2022-10-02T10:12:35.853Z,13.60
2022-10-02T10:15:40.689Z,13.70
2022-10-02T10:18:19.430Z,13.70
2022-10-02T10:21:03.390Z,13.90
2022-10-02T10:23:52.030Z,13.90
2022-10-02T10:26:41.512Z,14.00
2022-10-02T10:29:46.045Z,14.00
2022-10-02T10:32:57.081Z,14.10
2022-10-02T10:35:53.943Z,14.10
2022-10-02T10:38:40.652Z,14.00
2022-10-02T10:41:22.423Z,14.00
2022-10-02T10:44:12.254Z,14.10
2022-10-02T10:47:19.051Z,14.20
2022-10-02T10:50:07.402Z,14.30
2022-10-02T10:52:44.291Z,14.40
2022-10-02T10:55:30.025Z,14.50
2022-10-02T10:58:15.058Z,14.60
2022-10-02T11:00:56.221Z,14.70
2022-10-02T11:03:50.735Z,14.70
2022-10-02T11:06:43.985Z,14.50
2022-10-02T11:09:33.236Z,13.80
2022-10-02T11:12:20.145Z,13.30
2022-10-02T11:15:24.614Z,13.10
2022-10-02T11:17:54.342Z,13.10
2022-10-02T11:21:03.246Z,12.90
2022-10-02T11:24:07.919Z,13.00
2022-10-02T11:27:04.911Z,13.20
2022-10-02T12:36:48.244Z,13.10
2022-10-02T12:39:28.203Z,12.90
2022-10-02T12:42:06.464Z,12.90
2022-10-02T12:44:33.254Z,13.00
2022-10-02T12:47:24.884Z,13.10
2022-10-02T12:50:33.647Z,13.10
2022-10-02T12:53:22.523Z,13.20
2022-10-02T12:56:05.709Z,13.30
2022-10-02T12:58:50.526Z,13.20
2022-10-02T13:01:54.086Z,13.20
2022-10-02T13:04:40.567Z,13.30
2022-10-02T13:07:30.178Z,13.30
2022-10-02T13:10:25.159Z,13.40
2022-10-02T13:13:17.448Z,13.40
2022-10-02T13:16:03.087Z,13.60
2022-10-02T13:18:43.809Z,13.60
2022-10-02T13:21:23.786Z,13.60
2022-10-02T13:24:14.920Z,13.60
2022-10-02T13:27:10.579Z,13.60
2022-10-02T13:29:54.383Z,13.60
2022-10-02T13:32:47.037Z,13.70
2022-10-02T13:35:45.891Z,13.70
2022-10-02T13:38:50.199Z,13.80
2022-10-02T13:41:52.068Z,13.80
2022-10-02T13:45:00.549Z,13.80
2022-10-02T13:47:35.711Z,13.80
2022-10-02T13:50:19.929Z,13.80
2022-10-02T13:53:37.425Z,13.80
2022-10-02T13:56:34.690Z,13.80
2022-10-02T13:59:28.215Z,13.80
2022-10-02T14:02:08.545Z,13.80
2022-10-02T14:04:50.463Z,13.90
2022-10-02T14:07:48.999Z,13.80
2022-10-02T14:10:35.166Z,13.90
2022-10-02T14:13:17.901Z,14.00
2022-10-02T14:16:03.187Z,14.00
2022-10-02T14:18:33.770Z,14.00
2022-10-02T14:21:03.459Z,14.00
2022-10-02T14:23:43.753Z,14.00
2022-10-02T14:26:17.500Z,14.00
2022-10-02T14:29:04.965Z,14.00
2022-10-02T14:31:51.137Z,14.10
2022-10-02T14:35:19.228Z,14.10
2022-10-02T14:38:16.970Z,14.10
2022-10-02T14:40:55.684Z,14.10
2022-10-02T14:43:29.178Z,14.00
2022-10-02T14:46:17.978Z,14.00
2022-10-02T14:49:06.278Z,14.10
2022-10-02T14:51:40.089Z,14.10
2022-10-02T14:54:24.656Z,14.00
2022-10-02T14:57:07.500Z,14.10
2022-10-02T14:59:38.024Z,14.00
2022-10-02T15:02:08.849Z,14.00
2022-10-02T15:04:41.427Z,14.10
2022-10-02T15:07:13.734Z,14.00
2022-10-02T15:10:02.654Z,14.00
2022-10-02T15:12:48.068Z,14.00
2022-10-02T15:15:25.185Z,13.90
2022-10-02T15:18:21.089Z,14.00
2022-10-02T15:21:02.218Z,14.00
2022-10-02T15:23:50.486Z,14.00
2022-10-02T15:26:38.365Z,14.00
2022-10-02T15:29:21.150Z,13.90
2022-10-02T15:32:29.312Z,14.00
2022-10-02T15:35:22.245Z,13.90
2022-10-02T15:38:10.162Z,13.70
2022-10-02T15:41:07.820Z,13.70
2022-10-02T15:44:07.169Z,13.60
2022-10-02T15:47:02.665Z,13.70
2022-10-02T15:49:52.768Z,13.70
2022-10-02T15:52:49.677Z,13.70
2022-10-02T15:55:45.775Z,13.70
2022-10-02T15:59:09.179Z,13.70
2022-10-02T16:02:01.687Z,13.60
2022-10-02T16:05:01.570Z,13.60
2022-10-02T16:07:45.186Z,13.50
2022-10-02T16:10:54.652Z,13.50
2022-10-02T16:13:47.412Z,13.40
2022-10-02T16:16:37.765Z,13.20
2022-10-02T16:19:04.755Z,13.20
2022-10-02T16:21:39.280Z,13.20
2022-10-02T16:24:37.710Z,13.20
2022-10-02T16:27:22.547Z,13.10
2022-10-02T16:30:13.920Z,13.10
2022-10-02T16:33:18.802Z,13.10
2022-10-02T16:36:04.205Z,13.00
2022-10-02T16:39:13.456Z,13.00
2022-10-02T16:42:20.185Z,13.00
2022-10-02T16:45:21.896Z,13.00
2022-10-02T16:47:54.152Z,13.00
2022-10-02T16:50:31.530Z,13.00
2022-10-02T16:53:11.625Z,13.00
2022-10-02T16:55:50.939Z,13.10
2022-10-02T16:58:46.592Z,13.10
2022-10-02T17:01:25.390Z,13.00
2022-10-02T17:03:57.931Z,13.10
2022-10-02T17:06:40.542Z,13.00
2022-10-02T17:09:17.487Z,13.10
2022-10-02T17:12:13.253Z,13.00
2022-10-02T17:14:55.010Z,13.00
2022-10-02T17:17:36.231Z,13.00
2022-10-02T17:20:17.363Z,12.90
2022-10-02T17:23:35.897Z,12.90
2022-10-02T17:26:22.715Z,12.90
2022-10-02T17:28:57.373Z,12.90
2022-10-02T17:31:42.481Z,12.90
2022-10-02T17:34:24.937Z,12.90
2022-10-02T17:37:26.152Z,12.90
2022-10-02T17:40:09.609Z,12.90
2022-10-02T17:42:51.929Z,12.80
2022-10-02T17:45:45.730Z,12.70
2022-10-02T17:48:31.035Z,12.70
2022-10-02T17:54:50.404Z,12.60
2022-10-02T17:57:39.535Z,12.60
2022-10-02T18:00:23.992Z,12.60
2022-10-02T18:03:37.759Z,12.50
2022-10-02T18:06:10.846Z,12.50
2022-10-02T18:08:46.337Z,12.50
2022-10-02T18:11:22.150Z,12.50
2022-10-02T18:14:07.571Z,12.50
2022-10-02T18:17:00.949Z,12.50
2022-10-02T18:19:48.628Z,12.50
2022-10-02T18:22:22.864Z,12.40
2022-10-02T18:25:12.571Z,12.40
2022-10-02T18:28:16.758Z,12.40
2022-10-02T18:30:56.883Z,12.30
2022-10-02T18:33:58.313Z,12.30
2022-10-02T18:36:56.269Z,12.30
2022-10-02T18:39:33.007Z,12.40
2022-10-02T18:42:40.954Z,12.40
2022-10-02T18:45:27.402Z,12.30
2022-10-02T18:48:19.642Z,12.40
2022-10-02T18:50:46.781Z,12.40
2022-10-02T18:53:32.026Z,12.40
2022-10-02T18:56:07.302Z,12.40
2022-10-02T18:59:12.864Z,12.30
2022-10-02T19:02:15.658Z,12.20
2022-10-02T19:05:01.461Z,12.20
2022-10-02T19:07:45.655Z,12.20
2022-10-02T19:10:48.094Z,12.20
2022-10-02T19:13:28.807Z,12.20
2022-10-02T19:15:58.654Z,12.30
2022-10-02T19:18:31.201Z,12.30
2022-10-02T19:21:14.356Z,12.40
2022-10-02T19:23:49.095Z,12.30
2022-10-02T19:26:23.483Z,12.30
2022-10-02T19:28:56.244Z,12.30
2022-10-02T19:31:27.013Z,12.30
2022-10-02T19:33:57.734Z,12.30
2022-10-02T19:36:28.281Z,12.20
2022-10-02T19:39:02.325Z,12.20
2022-10-02T19:41:35.425Z,12.10
2022-10-02T19:44:07.158Z,12.10
2022-10-02T19:46:52.887Z,11.90
2022-10-02T19:49:34.124Z,11.90
2022-10-02T19:52:01.310Z,11.80
2022-10-02T19:54:38.306Z,11.60
2022-10-02T19:57:14.843Z,11.40
2022-10-02T19:59:47.537Z,11.40
2022-10-02T20:02:35.147Z,11.40
2022-10-02T20:05:06.358Z,11.30
2022-10-02T20:07:37.504Z,11.30
2022-10-02T20:10:14.649Z,11.20
2022-10-02T20:12:52.590Z,11.20
2022-10-02T20:15:47.055Z,11.10
2022-10-02T20:18:14.580Z,11.00
2022-10-02T20:20:43.577Z,10.90
2022-10-02T20:23:21.951Z,11.00
2022-10-02T20:25:53.270Z,11.00
2022-10-02T20:28:35.788Z,11.00
2022-10-02T20:31:10.492Z,11.00
2022-10-02T20:33:43.764Z,11.10
2022-10-02T20:36:19.362Z,11.00
2022-10-02T20:39:02.746Z,11.00
2022-10-02T20:41:49.768Z,11.00
2022-10-02T20:44:16.924Z,11.00
2022-10-02T20:47:07.336Z,11.00
2022-10-02T20:49:55.137Z,11.00
2022-10-02T20:52:54.783Z,11.10
2022-10-02T20:55:47.773Z,11.00
2022-10-02T20:58:42.470Z,11.10
2022-10-02T21:01:20.991Z,11.20
2022-10-02T21:04:06.928Z,11.10
2022-10-02T21:06:46.836Z,11.10
2022-10-02T21:09:40.844Z,11.10
2022-10-02T21:12:31.532Z,11.10
2022-10-02T21:15:01.101Z,11.00
2022-10-02T21:17:38.814Z,11.10
2022-10-02T21:20:33.213Z,11.10
2022-10-02T21:23:31.227Z,11.10
2022-10-02T21:26:39.241Z,11.00
2022-10-02T21:29:35.009Z,11.00
2022-10-02T21:32:22.708Z,11.00
2022-10-02T21:34:54.625Z,10.90
2022-10-02T21:37:52.320Z,11.00
2022-10-02T21:40:50.097Z,11.00
2022-10-02T21:43:34.686Z,11.00
2022-10-02T21:46:22.151Z,10.90
2022-10-02T21:49:10.783Z,10.90
2022-10-02T21:52:31.908Z,10.80
2022-10-02T21:55:02.249Z,10.80
2022-10-02T21:58:02.924Z,10.80
2022-10-02T22:00:31.270Z,10.80
